Time;durP1;ratioP1;P1;durP2;ratioP2;P2;SDS_P1;SDS_P2;PMS_P1;PMS_P2;Temp;Humidity;BMP_temperature;BMP_pressure;BME280_temperature;BME280_humidity;BME280_pressure;Samples;Min_cycle;Max_cycle;Signal;HPM_P1;HPM_P2
2023/09/24 00:00:53;;;;;;;15.53;11.23;;;21.40;99.90;;;;;;5085900;28;20520;-80
2023/09/24 00:03:19;;;;;;;13.87;10.33;;;21.40;99.90;;;;;;5084914;28;20432;-78
2023/09/24 00:05:46;;;;;;;17.53;10.10;;;21.40;99.90;;;;;;5084628;28;20453;-81
2023/09/24 00:08:12;;;;;;;15.60;10.07;;;21.40;99.90;;;;;;5086447;28;20204;-82
2023/09/24 00:10:37;;;;;;;16.83;11.37;;;21.40;99.90;;;;;;5084424;28;20456;-81
2023/09/24 00:13:03;;;;;;;16.60;11.70;;;21.30;99.90;;;;;;5083398;28;20184;-81
2023/09/24 00:15:30;;;;;;;17.53;10.83;;;21.30;99.90;;;;;;5084543;28;20208;-81
2023/09/24 00:17:56;;;;;;;15.77;9.40;;;21.30;99.90;;;;;;5085940;28;20404;-81
2023/09/24 00:20:22;;;;;;;13.60;9.00;;;21.20;99.90;;;;;;5084286;28;20437;-81
2023/09/24 00:22:47;;;;;;;13.00;8.87;;;21.20;99.90;;;;;;5084370;28;20413;-78
2023/09/24 00:25:14;;;;;;;15.00;9.83;;;21.20;99.90;;;;;;5084406;28;20311;-78
2023/09/24 00:27:40;;;;;;;15.10;10.07;;;21.20;99.90;;;;;;5084538;28;20744;-81
2023/09/24 00:30:09;;;;;;;13.90;8.63;;;21.10;99.90;;;;;;5084305;28;20485;-77
2023/09/24 00:32:35;;;;;;;19.50;9.77;;;21.10;99.90;;;;;;5085423;28;20502;-81
2023/09/24 00:35:01;;;;;;;14.50;10.07;;;21.10;99.90;;;;;;5084206;28;20916;-77
2023/09/24 00:37:27;;;;;;;13.27;8.93;;;21.00;99.90;;;;;;5084648;28;20516;-81
2023/09/24 00:39:53;;;;;;;12.60;8.70;;;21.00;99.90;;;;;;5085514;28;20524;-78
2023/09/24 00:42:19;;;;;;;14.20;9.27;;;21.00;99.90;;;;;;5084579;28;20176;-81
2023/09/24 00:44:45;;;;;;;14.00;9.43;;;20.90;99.90;;;;;;5085621;28;20192;-78
2023/09/24 00:47:11;;;;;;;13.73;9.73;;;20.90;99.90;;;;;;5085739;28;20448;-81
2023/09/24 00:49:38;;;;;;;13.87;9.67;;;20.90;99.90;;;;;;5084454;28;20316;-77
2023/09/24 00:52:04;;;;;;;12.90;9.47;;;20.80;99.90;;;;;;5087608;28;20815;-78
2023/09/24 00:54:30;;;;;;;15.50;10.30;;;20.70;99.90;;;;;;5089513;28;20457;-78
2023/09/24 00:56:58;;;;;;;15.37;10.27;;;20.70;99.90;;;;;;5088201;28;20444;-78
2023/09/24 00:59:25;;;;;;;15.27;10.37;;;20.70;99.90;;;;;;5088697;28;20427;-81
2023/09/24 01:01:51;;;;;;;17.37;9.73;;;20.70;99.90;;;;;;5087949;28;20599;-81
2023/09/24 01:04:17;;;;;;;16.73;9.00;;;20.70;99.90;;;;;;5089970;28;20793;-80
2023/09/24 01:06:44;;;;;;;17.87;10.57;;;20.70;99.90;;;;;;5089527;28;20512;-81
2023/09/24 01:09:12;;;;;;;17.80;11.83;;;20.70;99.90;;;;;;5089293;28;20342;-77
2023/09/24 01:11:38;;;;;;;14.60;9.90;;;20.70;99.90;;;;;;5087856;28;20772;-78
2023/09/24 01:14:04;;;;;;;13.63;9.57;;;20.70;99.90;;;;;;5086941;28;20636;-77
2023/09/24 01:16:32;;;;;;;16.37;10.50;;;20.70;99.90;;;;;;5089460;28;20680;-80
2023/09/24 01:18:58;;;;;;;15.27;10.60;;;20.70;99.90;;;;;;5089168;28;20400;-81
2023/09/24 01:21:26;;;;;;;15.83;10.23;;;20.70;99.90;;;;;;5087833;28;20464;-77
2023/09/24 01:23:51;;;;;;;14.50;9.50;;;20.70;99.90;;;;;;5089211;28;20405;-77
2023/09/24 01:26:18;;;;;;;13.27;9.43;;;20.70;99.90;;;;;;5087807;28;20760;-80
2023/09/24 01:28:44;;;;;;;15.70;10.50;;;20.70;99.90;;;;;;5088890;28;20363;-80
2023/09/24 01:31:11;;;;;;;14.60;9.87;;;20.70;99.90;;;;;;5087358;28;20457;-78
2023/09/24 01:33:39;;;;;;;15.27;9.87;;;20.70;99.90;;;;;;5088777;28;20405;-81
2023/09/24 01:36:05;;;;;;;13.50;9.30;;;20.60;99.90;;;;;;5087129;28;20475;-78
2023/09/24 01:38:31;;;;;;;13.43;9.20;;;20.60;99.90;;;;;;5087626;28;20758;-77
2023/09/24 01:40:57;;;;;;;12.70;8.67;;;20.60;99.90;;;;;;5086903;28;20451;-80
2023/09/24 01:43:24;;;;;;;12.73;8.43;;;20.60;99.90;;;;;;5087594;28;20416;-80
2023/09/24 01:45:50;;;;;;;12.80;8.90;;;20.50;99.90;;;;;;5087041;28;20448;-77
2023/09/24 01:48:17;;;;;;;15.47;8.53;;;20.50;99.90;;;;;;5087471;28;20461;-80
2023/09/24 01:50:43;;;;;;;11.90;8.20;;;20.50;99.90;;;;;;5088722;28;20794;-77
2023/09/24 01:53:09;;;;;;;15.00;9.27;;;20.50;99.90;;;;;;5088409;28;20749;-77
2023/09/24 01:55:39;;;;;;;12.87;8.73;;;20.50;99.90;;;;;;5088200;28;20436;-78
2023/09/24 01:58:05;;;;;;;11.17;8.03;;;20.50;99.90;;;;;;5087111;28;20782;-78
2023/09/24 02:00:31;;;;;;;10.80;8.10;;;20.40;99.90;;;;;;5088335;28;20452;-80
2023/09/24 02:03:01;;;;;;;11.10;7.87;;;20.40;99.90;;;;;;5085553;28;20405;-80
2023/09/24 02:05:34;;;;;;;10.57;7.60;;;20.40;99.90;;;;;;5088042;28;20266;-77
2023/09/24 02:08:02;;;;;;;10.53;8.50;;;20.40;99.90;;;;;;5086867;28;20461;-78
2023/09/24 02:10:28;;;;;;;12.10;6.97;;;20.50;99.90;;;;;;5086762;28;20506;-80
2023/09/24 02:12:54;;;;;;;10.70;6.87;;;20.50;99.90;;;;;;5088346;28;20409;-78
2023/09/24 02:15:23;;;;;;;10.07;6.63;;;20.50;99.90;;;;;;5087294;28;20249;-78
2023/09/24 02:17:48;;;;;;;12.10;7.73;;;20.50;99.90;;;;;;5087900;28;20663;-77
2023/09/24 02:20:23;;;;;;;10.20;7.60;;;20.50;99.90;;;;;;5086779;28;20460;-80
2023/09/24 02:22:58;;;;;;;11.80;8.40;;;20.50;99.90;;;;;;5087763;28;20152;-80
2023/09/24 02:25:25;;;;;;;9.77;7.40;;;20.40;99.90;;;;;;5087889;28;20470;-77
2023/09/24 02:27:51;;;;;;;10.30;6.57;;;20.40;99.90;;;;;;5086528;28;20476;-77
2023/09/24 02:30:18;;;;;;;10.67;7.00;;;20.40;99.90;;;;;;5086474;28;20494;-77
2023/09/24 02:32:44;;;;;;;12.73;8.83;;;20.50;99.90;;;;;;5087840;28;20405;-77
2023/09/24 02:35:11;;;;;;;8.93;6.30;;;20.40;99.90;;;;;;5086219;28;20470;-81
2023/09/24 02:37:41;;;;;;;11.63;7.93;;;20.40;99.90;;;;;;5087673;28;20177;-78
2023/09/24 02:40:18;;;;;;;11.20;8.10;;;20.40;99.90;;;;;;5086357;28;20448;-77
2023/09/24 02:42:46;;;;;;;9.17;6.63;;;20.40;99.90;;;;;;5088047;28;20816;-81
2023/09/24 02:45:15;;;;;;;9.70;6.90;;;20.40;99.90;;;;;;5087596;28;20803;-77
2023/09/24 02:47:42;;;;;;;8.07;6.20;;;20.40;99.90;;;;;;5086081;28;21138;-78
2023/09/24 02:50:08;;;;;;;10.33;6.43;;;20.40;99.90;;;;;;5087387;28;20598;-81
2023/09/24 02:52:35;;;;;;;6.73;5.73;;;20.40;99.90;;;;;;5085746;28;20424;-80
2023/09/24 02:55:01;;;;;;;9.07;6.33;;;20.50;99.90;;;;;;5086901;28;20796;-77
2023/09/24 02:57:27;;;;;;;9.07;6.30;;;20.50;99.90;;;;;;5086043;28;20639;-77
2023/09/24 02:59:53;;;;;;;8.17;6.67;;;20.50;99.90;;;;;;5086179;28;20421;-77
2023/09/24 03:02:18;;;;;;;8.63;5.80;;;20.50;99.90;;;;;;5085767;28;20478;-80
2023/09/24 03:04:44;;;;;;;9.57;7.27;;;20.50;99.90;;;;;;5087350;28;20302;-80
2023/09/24 03:07:10;;;;;;;10.37;7.03;;;20.40;99.90;;;;;;5087317;28;20318;-78
2023/09/24 03:09:36;;;;;;;8.10;5.50;;;20.40;99.90;;;;;;5085980;28;20239;-77
2023/09/24 03:12:02;;;;;;;9.77;6.50;;;20.50;99.90;;;;;;5085480;28;20674;-78
2023/09/24 03:14:27;;;;;;;7.50;6.10;;;20.50;99.90;;;;;;5084574;28;20468;-81
2023/09/24 03:16:53;;;;;;;10.03;7.20;;;20.50;99.90;;;;;;5085190;28;20184;-77
2023/09/24 03:19:19;;;;;;;8.47;5.50;;;20.50;99.90;;;;;;5085575;28;20172;-80
2023/09/24 03:21:45;;;;;;;10.50;7.00;;;20.50;99.90;;;;;;5086866;28;20413;-80
2023/09/24 03:24:14;;;;;;;9.53;6.67;;;20.50;99.90;;;;;;5086678;28;20563;-78
2023/09/24 03:26:41;;;;;;;8.73;6.90;;;20.50;99.90;;;;;;5086970;28;20572;-78
2023/09/24 03:29:06;;;;;;;6.80;5.03;;;20.50;99.90;;;;;;5086495;28;20464;-80
2023/09/24 03:31:33;;;;;;;9.07;5.80;;;20.50;99.90;;;;;;5085249;28;20821;-81
2023/09/24 03:33:59;;;;;;;8.33;6.30;;;20.50;99.90;;;;;;5085107;28;20777;-78
2023/09/24 03:36:25;;;;;;;8.43;6.00;;;20.50;99.90;;;;;;5085224;28;20491;-80
2023/09/24 03:38:51;;;;;;;9.83;6.47;;;20.50;99.90;;;;;;5086568;28;20445;-78
2023/09/24 03:41:16;;;;;;;9.73;6.27;;;20.50;99.90;;;;;;5084925;28;20230;-77
2023/09/24 03:43:42;;;;;;;9.77;6.50;;;20.50;99.90;;;;;;5085327;28;20180;-80
2023/09/24 03:46:11;;;;;;;8.90;6.23;;;20.40;99.90;;;;;;5086208;28;20254;-77
2023/09/24 03:48:37;;;;;;;9.83;7.37;;;20.40;99.90;;;;;;5084866;28;20223;-77
2023/09/24 03:51:03;;;;;;;11.17;7.70;;;20.50;99.90;;;;;;5084568;28;20448;-80
2023/09/24 03:53:28;;;;;;;10.20;7.13;;;20.40;99.90;;;;;;5086027;28;20235;-81
2023/09/24 03:55:54;;;;;;;10.70;7.40;;;20.40;99.90;;;;;;5084650;28;20201;-80
2023/09/24 03:58:19;;;;;;;12.10;7.43;;;20.40;99.90;;;;;;5086393;28;20255;-78
2023/09/24 04:00:46;;;;;;;11.63;8.00;;;20.40;99.90;;;;;;5084632;28;20748;-80
2023/09/24 04:03:14;;;;;;;11.00;7.40;;;20.40;99.90;;;;;;5084759;28;20183;-81
2023/09/24 04:05:39;;;;;;;10.43;7.33;;;20.50;99.90;;;;;;5084535;28;20440;-78
2023/09/24 04:08:05;;;;;;;11.73;8.37;;;20.40;99.90;;;;;;5084501;28;21047;-78
2023/09/24 04:10:32;;;;;;;13.20;8.20;;;20.50;99.90;;;;;;5084595;28;20727;-78
2023/09/24 04:12:59;;;;;;;11.13;8.03;;;20.50;99.90;;;;;;5084473;28;20560;-78
2023/09/24 04:15:29;;;;;;;11.97;8.00;;;20.50;99.90;;;;;;5084297;28;20533;-81
2023/09/24 04:17:56;;;;;;;11.20;7.57;;;20.50;99.90;;;;;;5085200;28;20397;-77
2023/09/24 04:20:22;;;;;;;12.33;7.70;;;20.50;99.90;;;;;;5085472;28;20425;-78
2023/09/24 04:22:49;;;;;;;11.40;7.53;;;20.50;99.90;;;;;;5084602;28;20419;-80
2023/09/24 04:25:22;;;;;;;12.97;7.57;;;20.50;99.90;;;;;;5085094;28;20452;-80
2023/09/24 04:27:48;;;;;;;12.60;7.73;;;20.50;99.90;;;;;;5084622;28;20731;-78
2023/09/24 04:30:17;;;;;;;11.33;8.13;;;20.50;99.90;;;;;;5084255;28;20433;-80
2023/09/24 04:32:47;;;;;;;11.40;8.90;;;20.50;99.90;;;;;;5085863;28;20406;-80
2023/09/24 04:35:13;;;;;;;11.80;7.90;;;20.50;99.90;;;;;;5084254;28;20436;-78
2023/09/24 04:37:39;;;;;;;12.60;8.40;;;20.50;99.90;;;;;;5084296;28;20423;-78
2023/09/24 04:40:11;;;;;;;11.40;8.00;;;20.50;99.90;;;;;;5084357;28;20968;-80
2023/09/24 04:42:37;;;;;;;13.07;9.07;;;20.40;99.90;;;;;;5084174;28;20195;-80
2023/09/24 04:45:06;;;;;;;10.57;7.90;;;20.40;99.90;;;;;;5085490;28;20421;-79
2023/09/24 04:47:31;;;;;;;12.30;8.53;;;20.40;99.90;;;;;;5085317;28;20451;-80
2023/09/24 04:49:57;;;;;;;14.07;9.60;;;20.40;99.90;;;;;;5085344;28;20461;-78
2023/09/24 04:52:23;;;;;;;11.80;8.60;;;20.40;99.90;;;;;;5085632;28;20189;-77
2023/09/24 04:54:48;;;;;;;14.20;9.40;;;20.30;99.90;;;;;;5085015;28;20222;-77
2023/09/24 04:57:14;;;;;;;13.73;9.20;;;20.40;99.90;;;;;;5084079;28;20238;-80
2023/09/24 04:59:40;;;;;;;12.27;9.40;;;20.40;99.90;;;;;;5085734;28;20197;-80
2023/09/24 05:02:05;;;;;;;14.60;8.93;;;20.40;99.90;;;;;;5085556;28;20211;-78
2023/09/24 05:04:32;;;;;;;15.63;8.93;;;20.40;99.90;;;;;;5085552;28;20196;-78
2023/09/24 05:06:58;;;;;;;14.53;9.03;;;20.40;99.90;;;;;;5085679;28;20212;-81
2023/09/24 05:09:23;;;;;;;12.40;8.33;;;20.40;99.90;;;;;;5085464;28;20488;-80
2023/09/24 05:11:49;;;;;;;13.43;8.80;;;20.40;99.90;;;;;;5085650;28;20192;-78
2023/09/24 05:14:15;;;;;;;16.27;9.50;;;20.50;99.90;;;;;;5083868;28;20333;-80
2023/09/24 05:16:40;;;;;;;13.97;9.60;;;20.50;99.90;;;;;;5085266;28;20181;-78
2023/09/24 05:19:07;;;;;;;11.53;8.47;;;20.50;99.90;;;;;;5084499;28;20196;-78
2023/09/24 05:21:33;;;;;;;11.70;8.63;;;20.50;99.90;;;;;;5083700;28;20191;-80
2023/09/24 05:23:59;;;;;;;14.93;8.93;;;20.50;99.90;;;;;;5084310;28;20405;-78
2023/09/24 05:26:24;;;;;;;11.30;8.03;;;20.60;99.90;;;;;;5085214;28;20204;-80
2023/09/24 05:28:50;;;;;;;12.13;8.07;;;20.60;99.90;;;;;;5085346;28;20200;-81
2023/09/24 05:31:16;;;;;;;11.60;8.23;;;20.60;99.90;;;;;;5083964;28;20227;-81
2023/09/24 05:33:44;;;;;;;10.67;7.20;;;20.60;99.90;;;;;;5083763;28;20179;-80
2023/09/24 05:36:10;;;;;;;13.13;9.00;;;20.60;99.90;;;;;;5083481;28;20218;-79
2023/09/24 05:38:36;;;;;;;12.30;7.90;;;20.60;99.90;;;;;;5088958;28;20629;-80
2023/09/24 05:41:02;;;;;;;13.50;8.43;;;20.60;99.90;;;;;;5088833;28;20443;-78
2023/09/24 05:43:28;;;;;;;11.10;7.60;;;20.60;99.90;;;;;;5087242;28;20169;-80
2023/09/24 05:45:53;;;;;;;13.13;7.63;;;20.60;99.90;;;;;;5088832;28;20206;-80
2023/09/24 05:48:19;;;;;;;10.97;7.83;;;20.70;99.90;;;;;;5088465;28;20700;-77
2023/09/24 05:50:45;;;;;;;11.97;8.40;;;20.70;99.90;;;;;;5086999;28;20219;-80
2023/09/24 05:53:12;;;;;;;13.27;8.40;;;20.70;99.90;;;;;;5088252;28;20201;-78
2023/09/24 05:55:38;;;;;;;10.53;7.07;;;20.80;99.90;;;;;;5087098;28;20452;-77
2023/09/24 05:58:05;;;;;;;10.20;7.50;;;20.70;99.90;;;;;;5088504;28;20898;-78
2023/09/24 06:00:31;;;;;;;10.73;7.50;;;20.70;99.90;;;;;;5086873;28;20277;-78
2023/09/24 06:02:58;;;;;;;11.43;7.30;;;20.80;99.90;;;;;;5086774;28;21020;-81
2023/09/24 06:05:24;;;;;;;10.70;7.90;;;20.80;99.90;;;;;;5088106;28;20630;-81
2023/09/24 06:07:49;;;;;;;11.37;8.00;;;20.80;99.90;;;;;;5086733;28;20401;-78
2023/09/24 06:10:15;;;;;;;12.33;7.83;;;20.90;99.90;;;;;;5088096;28;20528;-80
2023/09/24 06:12:41;;;;;;;13.00;7.97;;;20.90;99.90;;;;;;5088300;28;20225;-81
2023/09/24 06:15:10;;;;;;;11.50;8.13;;;20.90;99.90;;;;;;5087856;28;20192;-80
2023/09/24 06:17:36;;;;;;;10.37;7.53;;;20.90;99.90;;;;;;5088073;28;20172;-78
2023/09/24 06:20:03;;;;;;;11.13;7.50;;;20.90;99.90;;;;;;5085487;28;20437;-77
2023/09/24 06:22:29;;;;;;;10.17;7.27;;;20.90;99.90;;;;;;5086571;28;20760;-78
2023/09/24 06:24:54;;;;;;;9.33;8.00;;;20.90;99.90;;;;;;5086794;28;20653;-80
2023/09/24 06:27:22;;;;;;;9.50;6.87;;;20.90;99.90;;;;;;5086528;28;20425;-78
2023/09/24 06:29:47;;;;;;;11.63;7.80;;;20.90;99.90;;;;;;5088335;28;20303;-80
2023/09/24 06:32:14;;;;;;;10.70;7.73;;;20.90;99.90;;;;;;5087808;28;20507;-77
2023/09/24 06:34:39;;;;;;;11.10;8.03;;;20.90;99.90;;;;;;5086310;28;20212;-78
2023/09/24 06:37:05;;;;;;;8.67;6.70;;;20.90;99.90;;;;;;5086073;28;20432;-78
2023/09/24 06:39:34;;;;;;;11.20;7.70;;;20.90;99.90;;;;;;5086611;28;20477;-81
2023/09/24 06:42:00;;;;;;;9.63;7.63;;;20.90;99.90;;;;;;5087579;28;20176;-78
2023/09/24 06:44:26;;;;;;;10.23;7.40;;;20.90;99.90;;;;;;5086523;28;20449;-78
2023/09/24 06:46:53;;;;;;;9.83;7.03;;;20.90;99.90;;;;;;5087171;28;20463;-80
2023/09/24 06:49:19;;;;;;;9.07;6.77;;;21.00;99.90;;;;;;5085193;28;20471;-78
2023/09/24 06:51:45;;;;;;;10.00;6.80;;;21.00;99.90;;;;;;5086083;28;20421;-80
2023/09/24 06:54:11;;;;;;;11.07;7.90;;;20.90;99.90;;;;;;5085685;28;20539;-78
2023/09/24 06:56:37;;;;;;;9.40;6.73;;;20.90;99.90;;;;;;5087224;28;20409;-78
2023/09/24 06:59:09;;;;;;;12.00;7.50;;;21.00;99.90;;;;;;5087165;28;20404;-79
2023/09/24 07:01:35;;;;;;;9.60;7.00;;;21.10;99.90;;;;;;5085937;28;20184;-81
2023/09/24 07:04:01;;;;;;;8.40;7.37;;;21.10;99.90;;;;;;5085652;28;20936;-79
2023/09/24 07:06:26;;;;;;;10.00;7.40;;;21.20;99.90;;;;;;5087086;28;20736;-81
2023/09/24 07:08:52;;;;;;;10.13;7.10;;;21.20;99.90;;;;;;5087307;28;20219;-83
2023/09/24 07:11:21;;;;;;;9.83;7.10;;;21.30;99.90;;;;;;5085384;28;20756;-83
2023/09/24 07:13:47;;;;;;;17.70;8.23;;;21.30;99.90;;;;;;5087147;28;20771;-83
2023/09/24 07:16:13;;;;;;;12.80;7.27;;;21.40;99.90;;;;;;5085349;28;20540;-80
2023/09/24 07:18:39;;;;;;;12.40;7.93;;;21.40;99.90;;;;;;5085412;28;20408;-81
2023/09/24 07:21:05;;;;;;;11.73;7.93;;;21.50;99.90;;;;;;5084666;28;20449;-82
2023/09/24 07:23:31;;;;;;;10.10;7.47;;;21.50;99.90;;;;;;5085266;28;20176;-81
2023/09/24 07:25:57;;;;;;;11.37;6.97;;;21.60;99.90;;;;;;5086784;28;20509;-82
2023/09/24 07:28:24;;;;;;;10.43;7.30;;;21.60;99.90;;;;;;5086723;28;20510;-82
2023/09/24 07:30:53;;;;;;;8.80;6.53;;;21.70;99.90;;;;;;5085137;28;20208;-87
2023/09/24 07:33:21;;;;;;;12.87;7.77;;;21.70;99.90;;;;;;5085254;28;20413;-84
2023/09/24 07:35:47;;;;;;;10.83;7.30;;;21.70;99.90;;;;;;5086493;28;20926;-83
2023/09/24 07:38:13;;;;;;;12.17;8.23;;;21.70;99.90;;;;;;5086619;28;20499;-82
2023/09/24 07:40:39;;;;;;;9.30;6.87;;;21.80;99.90;;;;;;5084934;28;20543;-78
2023/09/24 07:43:07;;;;;;;9.57;7.17;;;21.80;99.90;;;;;;5085279;28;20408;-83
2023/09/24 07:45:33;;;;;;;11.27;6.90;;;21.90;99.90;;;;;;5086399;28;20448;-82
2023/09/24 07:47:58;;;;;;;10.57;7.33;;;21.90;99.90;;;;;;5086384;28;20809;-79
2023/09/24 07:50:24;;;;;;;10.60;7.27;;;22.00;99.90;;;;;;5085793;28;20215;-81
2023/09/24 07:52:50;;;;;;;9.87;7.30;;;22.00;99.90;;;;;;5084523;28;20552;-80
2023/09/24 07:55:15;;;;;;;8.50;6.40;;;22.00;99.90;;;;;;5086072;28;20261;-82
2023/09/24 07:57:41;;;;;;;9.30;7.03;;;22.00;99.90;;;;;;5084840;28;20184;-82
2023/09/24 08:00:08;;;;;;;8.20;6.80;;;22.00;99.90;;;;;;5085276;28;20212;-82
2023/09/24 08:02:34;;;;;;;8.97;6.93;;;22.10;99.90;;;;;;5084928;28;20553;-82
2023/09/24 08:05:00;;;;;;;8.33;6.20;;;22.10;99.90;;;;;;5084873;28;20433;-79
2023/09/24 08:07:29;;;;;;;8.40;6.47;;;22.10;99.90;;;;;;5086291;28;20197;-81
2023/09/24 08:09:54;;;;;;;7.80;5.80;;;22.10;99.90;;;;;;5084777;28;20458;-80
2023/09/24 08:12:20;;;;;;;8.63;6.27;;;22.00;99.90;;;;;;5086714;28;20503;-84
2023/09/24 08:14:47;;;;;;;12.30;7.67;;;22.00;99.90;;;;;;5084555;28;20791;-80
2023/09/24 08:17:13;;;;;;;12.87;8.03;;;22.10;99.90;;;;;;5084287;28;20169;-82
2023/09/24 08:19:39;;;;;;;12.30;8.53;;;21.90;99.90;;;;;;5084499;28;20528;-81
2023/09/24 08:22:05;;;;;;;9.50;7.43;;;21.90;99.90;;;;;;5084589;28;20944;-81
2023/09/24 08:24:30;;;;;;;7.90;6.60;;;21.80;99.90;;;;;;5083866;28;20192;-82
2023/09/24 08:26:56;;;;;;;8.80;6.50;;;21.80;99.90;;;;;;5085727;28;20789;-82
2023/09/24 08:29:22;;;;;;;6.80;5.70;;;21.80;99.90;;;;;;5084346;28;20235;-82
2023/09/24 08:31:48;;;;;;;6.03;4.97;;;21.80;99.90;;;;;;5085684;28;20207;-82
2023/09/24 08:34:13;;;;;;;6.60;5.27;;;21.70;99.90;;;;;;5084612;28;20184;-82
2023/09/24 08:36:39;;;;;;;5.47;4.60;;;21.70;99.90;;;;;;5085617;28;20183;-81
2023/09/24 08:39:05;;;;;;;5.77;4.93;;;21.60;99.90;;;;;;5084405;28;20691;-81
2023/09/24 08:41:32;;;;;;;6.83;5.30;;;21.50;99.90;;;;;;5085534;28;20754;-81
2023/09/24 08:44:03;;;;;;;5.67;4.90;;;21.50;99.90;;;;;;5084304;28;20796;-80
2023/09/24 08:46:30;;;;;;;5.90;4.70;;;21.50;99.90;;;;;;5083957;28;20489;-82
2023/09/24 08:48:58;;;;;;;5.80;4.83;;;21.40;99.90;;;;;;5083963;28;20469;-83
2023/09/24 08:51:24;;;;;;;9.27;5.50;;;21.40;99.90;;;;;;5084163;28;20457;-83
2023/09/24 08:53:52;;;;;;;6.87;5.70;;;21.40;99.90;;;;;;5084215;28;20467;-82
2023/09/24 08:56:20;;;;;;;6.27;5.50;;;21.40;99.90;;;;;;5082445;28;20209;-82
2023/09/24 08:58:45;;;;;;;6.40;5.03;;;21.40;99.90;;;;;;5084046;28;20988;-81
2023/09/24 09:01:11;;;;;;;6.70;5.30;;;21.30;99.90;;;;;;5084036;28;20437;-82
2023/09/24 09:03:37;;;;;;;6.03;5.00;;;21.30;99.90;;;;;;5083855;28;20550;-82
2023/09/24 09:06:03;;;;;;;5.93;5.33;;;21.30;99.90;;;;;;5081942;28;20261;-81
2023/09/24 09:08:47;;;;;;;7.20;5.63;;;21.30;99.90;;;;;;5082722;28;20457;-83
2023/09/24 09:11:13;;;;;;;8.17;5.80;;;21.20;99.90;;;;;;5085109;28;20208;-81
2023/09/24 09:13:43;;;;;;;6.20;5.03;;;21.20;99.90;;;;;;5088134;28;20424;-82
2023/09/24 09:16:09;;;;;;;8.23;6.47;;;21.30;99.90;;;;;;5087419;28;20200;-82
2023/09/24 09:18:35;;;;;;;7.07;5.73;;;21.30;99.90;;;;;;5089257;28;20412;-81
2023/09/24 09:21:01;;;;;;;6.60;5.10;;;21.30;99.90;;;;;;5087918;28;20455;-82
2023/09/24 09:23:31;;;;;;;8.13;6.07;;;21.20;99.90;;;;;;5088977;28;20401;-82
2023/09/24 09:25:57;;;;;;;7.60;5.20;;;21.20;99.90;;;;;;5088958;28;20207;-81
2023/09/24 09:28:23;;;;;;;6.43;4.90;;;21.20;99.90;;;;;;5086807;28;20460;-82
2023/09/24 09:31:09;;;;;;;8.60;6.50;;;21.20;99.90;;;;;;5087416;28;20700;-82
2023/09/24 09:33:42;;;;;;;7.87;5.77;;;21.20;99.90;;;;;;5087375;28;20411;-81
2023/09/24 09:36:28;;;;;;;8.40;6.30;;;21.20;99.90;;;;;;5087079;28;20440;-83
2023/09/24 09:38:57;;;;;;;7.90;5.50;;;21.20;99.90;;;;;;5088977;28;20882;-83
2023/09/24 09:41:24;;;;;;;7.33;5.70;;;21.20;99.90;;;;;;5087563;28;20477;-81
2023/09/24 09:43:52;;;;;;;7.37;6.30;;;21.20;99.90;;;;;;5087245;28;20965;-83
2023/09/24 09:46:22;;;;;;;8.67;5.43;;;21.10;99.90;;;;;;5088738;28;20436;-82
2023/09/24 09:49:07;;;;;;;7.30;5.50;;;21.10;99.90;;;;;;5088914;28;20486;-81
2023/09/24 09:51:46;;;;;;;6.13;4.60;;;21.10;99.90;;;;;;5086987;28;20425;-81
2023/09/24 09:54:13;;;;;;;6.00;5.03;;;21.10;99.90;;;;;;5087107;28;20456;-81
2023/09/24 09:56:41;;;;;;;7.50;4.63;;;21.10;99.90;;;;;;5087115;28;21087;-82
2023/09/24 09:59:07;;;;;;;6.43;5.50;;;21.10;99.90;;;;;;5087103;28;20664;-82
2023/09/24 10:01:34;;;;;;;6.60;5.00;;;21.10;99.90;;;;;;5087099;28;20790;-81
2023/09/24 10:04:03;;;;;;;7.37;5.50;;;21.20;99.90;;;;;;5087173;28;20618;-83
2023/09/24 10:06:34;;;;;;;7.77;5.50;;;21.20;99.90;;;;;;5088207;28;20577;-81
2023/09/24 10:08:59;;;;;;;9.60;6.30;;;21.20;99.90;;;;;;5086877;28;20611;-83
2023/09/24 10:11:31;;;;;;;6.20;5.00;;;21.20;99.90;;;;;;5088430;28;20440;-82
2023/09/24 10:13:58;;;;;;;7.90;5.10;;;21.30;99.90;;;;;;5088005;28;20197;-81
2023/09/24 10:16:27;;;;;;;7.13;5.63;;;21.30;99.90;;;;;;5086630;28;20501;-81
2023/09/24 10:18:58;;;;;;;6.67;5.47;;;21.30;99.90;;;;;;5088091;28;20922;-81
2023/09/24 10:21:31;;;;;;;6.80;5.67;;;21.40;99.90;;;;;;5086908;28;20449;-81
2023/09/24 10:23:58;;;;;;;9.40;6.20;;;21.40;99.90;;;;;;5085617;28;20973;-80
2023/09/24 10:27:01;;;;;;;11.00;6.30;;;21.40;99.90;;;;;;5086621;28;20452;-81
2023/09/24 10:29:55;;;;;;;8.40;5.33;;;21.40;99.90;;;;;;5086542;28;20472;-81
2023/09/24 10:32:22;;;;;;;6.50;5.47;;;21.50;99.90;;;;;;5079872;28;20437;-82
2023/09/24 10:37:21;;;;;;;6.90;5.73;;;21.50;99.90;;;;;;5087696;28;20959;-82
2023/09/24 10:40:05;;;;;;;9.60;6.77;;;21.50;99.90;;;;;;5087745;28;20432;-83
2023/09/24 10:42:32;;;;;;;8.43;5.60;;;21.60;99.90;;;;;;5086490;28;20429;-81
2023/09/24 10:45:07;;;;;;;8.27;6.33;;;21.60;99.90;;;;;;5086055;28;20745;-82
2023/09/24 10:47:45;;;;;;;6.57;5.60;;;21.60;99.90;;;;;;5086051;28;20432;-83
2023/09/24 10:50:18;;;;;;;6.43;5.20;;;21.70;99.90;;;;;;5087475;28;20432;-82
2023/09/24 10:52:59;;;;;;;6.73;5.40;;;21.70;99.90;;;;;;5087524;28;20409;-81
2023/09/24 10:55:30;;;;;;;8.00;5.30;;;21.80;99.90;;;;;;5085824;28;21088;-81
2023/09/24 10:58:17;;;;;;;7.00;5.00;;;21.90;99.90;;;;;;5085939;28;20413;-82
2023/09/24 11:00:51;;;;;;;8.27;6.00;;;21.90;99.90;;;;;;5085822;28;20544;-82
2023/09/24 11:03:16;;;;;;;5.97;4.70;;;21.90;99.90;;;;;;5085921;28;20420;-82
2023/09/24 11:05:52;;;;;;;7.20;5.73;;;21.90;99.90;;;;;;5086982;28;20524;-81
2023/09/24 11:08:23;;;;;;;6.20;5.50;;;22.00;99.90;;;;;;5085697;28;20233;-81
2023/09/24 11:10:50;;;;;;;7.63;5.00;;;22.00;99.90;;;;;;5085611;28;20740;-83
2023/09/24 11:13:16;;;;;;;12.80;5.07;;;22.00;99.90;;;;;;5085790;28;20961;-81
2023/09/24 11:15:42;;;;;;;8.17;6.23;;;22.00;99.90;;;;;;5083586;28;20872;-83
2023/09/24 11:18:11;;;;;;;6.00;5.40;;;22.00;99.90;;;;;;5085792;28;20760;-81
2023/09/24 11:20:37;;;;;;;6.17;5.57;;;22.00;99.90;;;;;;5082087;28;20436;-82
2023/09/24 11:23:11;;;;;;;6.47;5.00;;;22.10;99.90;;;;;;5084002;28;20771;-80
2023/09/24 11:25:38;;;;;;;6.90;4.97;;;22.00;99.90;;;;;;5083392;28;20299;-81
2023/09/24 11:28:05;;;;;;;5.50;4.67;;;22.00;99.90;;;;;;5083284;28;20802;-81
2023/09/24 11:30:45;;;;;;;8.37;5.40;;;22.00;99.90;;;;;;5083113;28;21027;-83
2023/09/24 11:33:20;;;;;;;6.33;5.60;;;22.00;99.90;;;;;;5083284;28;20767;-82
2023/09/24 11:35:46;;;;;;;7.50;5.50;;;22.10;99.90;;;;;;5083186;28;20492;-80
2023/09/24 11:38:12;;;;;;;8.10;5.43;;;22.00;99.90;;;;;;5084741;28;20775;-82
2023/09/24 11:40:40;;;;;;;6.90;5.17;;;22.00;99.90;;;;;;5082335;28;20479;-82
2023/09/24 11:43:11;;;;;;;7.40;5.27;;;22.00;99.90;;;;;;5083304;28;20436;-80
2023/09/24 11:45:47;;;;;;;8.10;5.30;;;22.00;99.90;;;;;;5081745;28;20452;-82
2023/09/24 11:48:21;;;;;;;9.33;5.53;;;22.00;99.90;;;;;;5083448;28;20824;-81
2023/09/24 11:50:52;;;;;;;6.60;5.90;;;22.00;99.90;;;;;;5083262;28;20437;-80
2023/09/24 11:53:20;;;;;;;8.10;5.17;;;22.00;99.90;;;;;;5084731;28;20944;-81
2023/09/24 11:55:47;;;;;;;7.00;6.20;;;22.00;99.90;;;;;;5084021;28;21005;-82
2023/09/24 11:58:13;;;;;;;6.97;5.77;;;22.00;99.90;;;;;;5084700;28;20668;-80
2023/09/24 12:00:43;;;;;;;6.77;5.30;;;22.00;99.90;;;;;;5084713;28;20449;-80
2023/09/24 12:03:09;;;;;;;8.80;6.20;;;22.00;99.90;;;;;;5086106;28;20502;-80
2023/09/24 12:05:35;;;;;;;7.47;5.90;;;22.00;99.90;;;;;;5084643;28;20483;-82
2023/09/24 12:08:03;;;;;;;5.97;5.10;;;22.00;99.90;;;;;;5084683;28;20401;-81
2023/09/24 12:10:29;;;;;;;6.20;5.53;;;22.00;99.90;;;;;;5084638;28;20605;-81
2023/09/24 12:13:01;;;;;;;8.30;5.63;;;22.10;99.90;;;;;;5084044;28;20504;-81
2023/09/24 12:15:29;;;;;;;7.20;5.57;;;22.10;99.90;;;;;;5084287;28;20506;-81
2023/09/24 12:17:56;;;;;;;6.87;5.90;;;22.10;99.90;;;;;;5084569;28;20409;-82
2023/09/24 12:20:22;;;;;;;5.90;5.30;;;22.10;99.90;;;;;;5085214;28;20429;-82
2023/09/24 12:22:48;;;;;;;9.67;6.67;;;22.10;99.90;;;;;;5085572;28;20412;-83
2023/09/24 12:25:13;;;;;;;6.67;5.23;;;22.10;99.90;;;;;;5083956;28;20433;-83
2023/09/24 12:27:40;;;;;;;6.73;5.90;;;22.20;99.90;;;;;;5085170;28;20347;-81
2023/09/24 12:30:12;;;;;;;8.60;6.10;;;22.20;99.90;;;;;;5084289;28;20360;-81
2023/09/24 12:32:39;;;;;;;6.63;5.57;;;22.20;99.90;;;;;;5082626;28;20409;-83
2023/09/24 12:35:10;;;;;;;5.93;5.27;;;22.20;99.90;;;;;;5082043;28;20432;-81
2023/09/24 12:37:36;;;;;;;8.43;5.80;;;22.20;99.90;;;;;;5082181;28;20770;-81
2023/09/24 12:40:10;;;;;;;7.93;5.50;;;22.20;99.90;;;;;;5084010;28;20413;-81
2023/09/24 12:42:40;;;;;;;7.37;5.90;;;22.20;99.90;;;;;;5082611;28;20184;-81
2023/09/24 12:45:10;;;;;;;7.10;5.57;;;22.20;99.90;;;;;;5082357;28;20479;-81